createdAt,value
2018-09-01T00:00:30.847Z,29.10
2018-09-01T00:03:00.136Z,29.20
2018-09-01T00:05:29.379Z,29.10
2018-09-01T00:07:58.698Z,29.10
2018-09-01T00:10:27.959Z,29.10
2018-09-01T00:12:57.196Z,29.00
2018-09-01T00:15:26.455Z,29.00
2018-09-01T00:17:55.704Z,29.10
2018-09-01T00:20:24.944Z,29.10
2018-09-01T00:22:54.230Z,29.20
2018-09-01T00:25:23.495Z,29.10
2018-09-01T00:27:52.870Z,29.10
2018-09-01T00:30:22.256Z,29.10
2018-09-01T00:32:51.530Z,29.20
2018-09-01T00:35:20.778Z,29.30
2018-09-01T00:37:55.238Z,29.20
2018-09-01T00:40:27.875Z,29.10
2018-09-01T00:42:59.478Z,29.10
2018-09-01T00:45:29.234Z,29.00
2018-09-01T00:47:58.491Z,28.90
2018-09-01T00:50:27.820Z,28.90
2018-09-01T00:52:57.103Z,29.00
2018-09-01T00:55:31.318Z,29.10
2018-09-01T00:58:01.055Z,29.10
2018-09-01T01:00:30.351Z,29.10
2018-09-01T01:02:59.724Z,29.20
2018-09-01T01:05:28.933Z,29.20
2018-09-01T01:07:58.146Z,29.10
2018-09-01T01:10:27.413Z,29.10
2018-09-01T01:12:56.636Z,29.00
2018-09-01T01:15:25.958Z,29.00
2018-09-01T01:17:55.220Z,29.00
2018-09-01T01:20:24.535Z,28.90
2018-09-01T01:22:53.789Z,28.90
2018-09-01T01:25:23.068Z,28.90
2018-09-01T01:27:52.421Z,28.80
2018-09-01T01:30:21.759Z,28.80
2018-09-01T01:32:51.000Z,28.80
2018-09-01T01:35:20.276Z,28.80
2018-09-01T01:37:49.543Z,28.80
2018-09-01T01:40:18.839Z,28.70
2018-09-01T01:42:48.126Z,28.80
2018-09-01T01:45:17.506Z,28.80
2018-09-01T01:47:46.759Z,28.80
2018-09-01T01:50:16.022Z,28.80
2018-09-01T01:52:45.256Z,28.80
2018-09-01T01:55:14.555Z,28.80
2018-09-01T01:57:49.772Z,28.80
2018-09-01T02:00:19.162Z,28.80
2018-09-01T02:02:49.001Z,28.70
2018-09-01T02:05:20.287Z,28.70
2018-09-01T02:07:50.683Z,28.70
2018-09-01T02:10:19.982Z,28.70
2018-09-01T02:12:49.241Z,28.70
2018-09-01T02:15:18.567Z,28.70
2018-09-01T02:17:47.810Z,28.70
2018-09-01T02:20:17.104Z,28.70
2018-09-01T02:22:46.617Z,28.70
2018-09-01T02:25:15.923Z,28.70
2018-09-01T02:27:45.250Z,28.70
2018-09-01T02:30:14.515Z,28.70
2018-09-01T02:32:43.795Z,28.70
2018-09-01T02:35:13.244Z,28.70
2018-09-01T02:37:42.529Z,28.70
2018-09-01T02:40:11.817Z,28.70
2018-09-01T02:42:41.068Z,28.70
2018-09-01T02:45:10.443Z,28.60
2018-09-01T02:47:39.679Z,28.60
2018-09-01T02:50:08.932Z,28.60
2018-09-01T02:52:38.216Z,28.60
2018-09-01T02:55:07.527Z,28.60
2018-09-01T02:57:36.810Z,28.70
2018-09-01T03:00:10.332Z,28.60
2018-09-01T03:02:46.164Z,28.60
2018-09-01T03:05:16.576Z,28.60
2018-09-01T03:07:45.865Z,28.60
2018-09-01T03:10:15.153Z,28.50
2018-09-01T03:12:44.415Z,28.50
2018-09-01T03:15:13.659Z,28.50
2018-09-01T03:17:42.963Z,28.50
2018-09-01T03:20:12.223Z,28.50
2018-09-01T03:22:41.656Z,28.50
2018-09-01T03:25:10.977Z,28.50
2018-09-01T03:27:40.286Z,28.50
2018-09-01T03:30:09.516Z,28.50
2018-09-01T03:32:38.787Z,28.50
2018-09-01T03:35:08.127Z,28.50
2018-09-01T03:37:37.378Z,28.50
2018-09-01T03:40:07.946Z,28.50
2018-09-01T03:42:37.210Z,28.50
2018-09-01T03:45:06.768Z,28.60
2018-09-01T03:47:36.038Z,28.60
2018-09-01T03:50:05.375Z,28.60
2018-09-01T03:52:34.629Z,28.60
2018-09-01T03:55:03.965Z,28.60
2018-09-01T03:57:33.201Z,28.60
2018-09-01T04:00:02.492Z,28.50
2018-09-01T04:02:31.766Z,28.50
2018-09-01T04:05:01.018Z,28.50
2018-09-01T04:07:30.270Z,28.50
2018-09-01T04:09:59.570Z,28.50
2018-09-01T04:12:28.815Z,28.50
2018-09-01T04:14:58.021Z,28.50
2018-09-01T04:17:27.328Z,28.50
2018-09-01T04:19:56.560Z,28.50
2018-09-01T04:22:25.938Z,28.50
2018-09-01T04:24:55.200Z,28.50
2018-09-01T04:27:24.452Z,28.50
2018-09-01T04:29:53.696Z,28.50
2018-09-01T04:32:23.028Z,28.50
2018-09-01T04:34:52.283Z,28.50
2018-09-01T04:37:21.502Z,28.40
2018-09-01T04:39:50.760Z,28.40
2018-09-01T04:42:20.032Z,28.40
2018-09-01T04:44:49.274Z,28.40
2018-09-01T04:47:18.634Z,28.40
2018-09-01T04:49:47.928Z,28.40
2018-09-01T04:52:17.185Z,28.40
2018-09-01T04:54:46.447Z,28.40
2018-09-01T04:57:15.658Z,28.40
2018-09-01T04:59:44.900Z,28.40
2018-09-01T05:02:14.222Z,28.40
2018-09-01T05:04:43.987Z,28.40
2018-09-01T05:07:13.348Z,28.40
2018-09-01T05:09:42.595Z,28.40
2018-09-01T05:12:11.962Z,28.40
2018-09-01T05:14:41.245Z,28.40
2018-09-01T05:17:10.573Z,28.40
2018-09-01T05:19:39.833Z,28.40
2018-09-01T05:22:09.091Z,28.40
2018-09-01T05:24:38.387Z,28.40
2018-09-01T05:27:07.637Z,28.40
2018-09-01T05:29:36.919Z,28.40
2018-09-01T05:32:06.298Z,28.40
2018-09-01T05:34:35.515Z,28.40
2018-09-01T05:37:04.828Z,28.40
2018-09-01T05:39:34.077Z,28.40
2018-09-01T05:42:03.418Z,28.40
2018-09-01T05:44:32.645Z,28.40
2018-09-01T05:47:01.966Z,28.40
2018-09-01T05:49:31.214Z,28.40
2018-09-01T05:52:00.447Z,28.40
2018-09-01T05:54:29.706Z,28.40
2018-09-01T05:56:59.071Z,28.40
2018-09-01T05:59:28.354Z,28.40
2018-09-01T06:01:57.647Z,28.40
2018-09-01T06:04:27.005Z,28.40
2018-09-01T06:06:56.409Z,28.40
2018-09-01T06:09:25.630Z,28.40
2018-09-01T06:11:54.919Z,28.40
2018-09-01T06:14:24.186Z,28.40
2018-09-01T06:16:53.451Z,28.40
2018-09-01T06:19:22.824Z,28.40
2018-09-01T06:21:52.107Z,28.40
2018-09-01T06:24:21.452Z,28.40
2018-09-01T06:26:50.701Z,28.50
2018-09-01T06:29:20.508Z,28.50
2018-09-01T06:31:58.634Z,28.50
2018-09-01T06:34:28.009Z,28.50
2018-09-01T06:36:57.255Z,28.50
2018-09-01T06:39:26.660Z,28.50
2018-09-01T06:41:55.896Z,28.50
2018-09-01T06:44:25.331Z,28.50
2018-09-01T06:46:54.607Z,28.50
2018-09-01T06:49:24.891Z,28.60
2018-09-01T06:51:54.381Z,28.50
2018-09-01T06:54:23.665Z,28.50
2018-09-01T06:56:52.908Z,28.60
2018-09-01T06:59:22.156Z,28.60
2018-09-01T07:01:51.534Z,28.60
2018-09-01T07:04:20.779Z,28.60
2018-09-01T07:06:50.163Z,28.60
2018-09-01T07:09:19.456Z,28.60
2018-09-01T07:11:48.724Z,28.70
2018-09-01T07:14:18.015Z,28.70
2018-09-01T07:16:47.262Z,28.70
2018-09-01T07:19:16.631Z,28.70
2018-09-01T07:21:46.019Z,28.70
2018-09-01T07:24:15.331Z,28.80
2018-09-01T07:26:44.615Z,28.80
2018-09-01T07:29:13.924Z,28.90
2018-09-01T07:31:43.879Z,28.90
2018-09-01T07:34:13.199Z,28.90
2018-09-01T07:36:42.520Z,28.90
2018-09-01T07:39:11.827Z,28.90
2018-09-01T07:41:41.110Z,29.00
2018-09-01T07:44:10.421Z,29.10
2018-09-01T07:46:39.770Z,29.10
2018-09-01T07:49:09.391Z,29.20
2018-09-01T07:51:38.706Z,29.20
2018-09-01T07:54:08.135Z,29.20
2018-09-01T07:56:37.456Z,29.30
2018-09-01T07:59:06.760Z,29.30
2018-09-01T08:01:36.042Z,29.40
2018-09-01T08:04:05.249Z,29.40
2018-09-01T08:06:34.523Z,29.50
2018-09-01T08:09:04.802Z,29.50
2018-09-01T08:11:34.232Z,29.50
2018-09-01T08:14:03.612Z,29.60
2018-09-01T08:16:32.840Z,29.70
2018-09-01T08:19:02.418Z,29.70
2018-09-01T08:21:31.687Z,29.80
2018-09-01T08:24:00.981Z,29.80
2018-09-01T08:26:30.200Z,29.90
2018-09-01T08:28:59.657Z,30.00
2018-09-01T08:31:28.935Z,30.00
2018-09-01T08:33:58.165Z,30.00
2018-09-01T08:36:27.439Z,30.20
2018-09-01T08:38:56.915Z,30.20
2018-09-01T08:41:26.215Z,30.20
2018-09-01T08:43:55.579Z,30.30
2018-09-01T08:46:24.866Z,30.30
2018-09-01T08:48:54.216Z,30.30
2018-09-01T08:51:23.554Z,30.40
2018-09-01T08:53:52.788Z,30.40
2018-09-01T08:56:22.066Z,30.50
2018-09-01T08:58:51.522Z,30.60
2018-09-01T09:01:20.795Z,30.60
2018-09-01T09:03:50.064Z,30.60
2018-09-01T09:06:19.391Z,30.60
2018-09-01T09:08:48.666Z,30.60
2018-09-01T09:11:17.913Z,30.60
2018-09-01T09:13:47.234Z,30.70
2018-09-01T09:16:16.462Z,30.80
2018-09-01T09:18:45.812Z,30.90
2018-09-01T09:21:15.148Z,30.90
2018-09-01T09:23:44.552Z,31.00
2018-09-01T09:26:13.894Z,31.10
2018-09-01T09:28:43.252Z,31.20
2018-09-01T09:31:16.536Z,31.20
2018-09-01T09:33:45.840Z,31.40
2018-09-01T09:36:19.370Z,31.40
2018-09-01T09:38:48.625Z,31.50
2018-09-01T09:41:17.887Z,31.70
2018-09-01T09:43:47.220Z,31.70
2018-09-01T09:46:16.576Z,31.70
2018-09-01T09:48:46.077Z,31.70
2018-09-01T09:51:15.463Z,31.90
2018-09-01T09:53:44.754Z,32.00
2018-09-01T09:56:14.015Z,32.00
2018-09-01T09:58:44.295Z,32.10
2018-09-01T10:01:18.842Z,32.10
2018-09-01T10:03:48.294Z,32.20
2018-09-01T10:06:17.669Z,32.20
2018-09-01T10:08:46.922Z,32.30
2018-09-01T10:11:16.236Z,32.40
2018-09-01T10:13:45.457Z,32.40
2018-09-01T10:16:14.695Z,32.40
2018-09-01T10:18:43.964Z,32.60
2018-09-01T10:21:13.212Z,32.60
2018-09-01T10:23:42.567Z,32.70
2018-09-01T10:26:11.903Z,32.70
2018-09-01T10:28:41.196Z,32.80
2018-09-01T10:31:10.759Z,32.90
2018-09-01T10:33:40.575Z,32.90
2018-09-01T10:36:10.279Z,32.90
2018-09-01T10:38:39.651Z,33.00
2018-09-01T10:41:09.520Z,33.10
2018-09-01T10:43:39.015Z,33.30
2018-09-01T10:46:08.326Z,33.20
2018-09-01T10:48:37.681Z,33.30
2018-09-01T10:51:07.173Z,33.20
2018-09-01T10:53:45.421Z,33.20
2018-09-01T10:56:15.505Z,33.10
2018-09-01T10:58:45.416Z,33.10
2018-09-01T11:01:14.954Z,33.10
2018-09-01T11:03:44.528Z,33.10
2018-09-01T11:06:13.765Z,33.20
2018-09-01T11:08:43.039Z,33.10
2018-09-01T11:11:12.730Z,33.10
2018-09-01T11:13:42.109Z,33.20
2018-09-01T11:16:11.414Z,33.20
2018-09-01T11:18:40.696Z,33.10
2018-09-01T11:21:10.027Z,33.30
2018-09-01T11:23:39.307Z,33.30
2018-09-01T11:26:08.590Z,33.40
2018-09-01T11:28:37.851Z,33.40
2018-09-01T11:31:07.748Z,33.30
2018-09-01T11:33:37.135Z,33.30
2018-09-01T11:36:06.782Z,33.40
2018-09-01T11:38:36.039Z,33.40
2018-09-01T11:41:08.624Z,33.60
2018-09-01T11:43:37.963Z,33.60
2018-09-01T11:46:07.380Z,33.60
2018-09-01T11:48:36.664Z,33.50
2018-09-01T11:51:06.126Z,33.50
2018-09-01T11:53:35.699Z,33.50
2018-09-01T11:56:05.130Z,33.50
2018-09-01T11:58:34.363Z,33.50
2018-09-01T12:01:03.721Z,33.50
2018-09-01T12:03:32.989Z,33.50
2018-09-01T12:06:02.294Z,33.40
2018-09-01T12:08:31.728Z,33.40
2018-09-01T12:11:01.215Z,33.30
2018-09-01T12:13:30.445Z,33.30
2018-09-01T12:15:59.855Z,33.40
2018-09-01T12:18:29.076Z,33.40
2018-09-01T12:20:58.342Z,33.50
2018-09-01T12:23:27.631Z,33.40
2018-09-01T12:25:56.953Z,33.40
2018-09-01T12:28:26.262Z,33.40
2018-09-01T12:30:55.539Z,33.50
2018-09-01T12:33:24.950Z,33.50
2018-09-01T12:35:54.258Z,33.60
2018-09-01T12:38:23.555Z,33.50
2018-09-01T12:40:52.870Z,33.60
2018-09-01T12:43:22.115Z,33.60
2018-09-01T12:45:51.395Z,33.60
2018-09-01T12:48:20.626Z,33.60
2018-09-01T12:50:50.032Z,33.60
2018-09-01T12:53:19.674Z,33.60
2018-09-01T12:55:50.047Z,33.50
2018-09-01T12:58:19.336Z,33.50
2018-09-01T13:00:48.689Z,33.40
2018-09-01T13:03:17.999Z,33.40
2018-09-01T13:05:47.516Z,33.40
2018-09-01T13:08:17.004Z,33.30
2018-09-01T13:10:46.317Z,33.30
2018-09-01T13:13:15.588Z,33.30
2018-09-01T13:15:45.038Z,33.30
2018-09-01T13:18:14.375Z,33.30
2018-09-01T13:20:43.671Z,33.30
2018-09-01T13:23:12.971Z,33.30
2018-09-01T13:25:42.295Z,33.30
2018-09-01T13:28:11.720Z,33.30
2018-09-01T13:30:41.104Z,33.30
2018-09-01T13:33:10.496Z,33.30
2018-09-01T13:35:39.768Z,33.30
2018-09-01T13:38:09.176Z,33.30
2018-09-01T13:40:38.467Z,33.30
2018-09-01T13:43:07.793Z,33.30
2018-09-01T13:45:37.038Z,33.20
2018-09-01T13:48:06.471Z,33.20
2018-09-01T13:50:36.093Z,33.20
2018-09-01T13:53:05.619Z,33.20
2018-09-01T13:55:35.007Z,33.20
2018-09-01T13:58:04.370Z,33.20
2018-09-01T14:00:33.817Z,33.10
2018-09-01T14:03:03.150Z,33.10
2018-09-01T14:05:33.147Z,33.00
2018-09-01T14:08:02.596Z,33.00
2018-09-01T14:10:31.907Z,32.90
2018-09-01T14:13:01.237Z,32.80
2018-09-01T14:15:30.458Z,32.80
2018-09-01T14:17:59.738Z,32.80
2018-09-01T14:20:29.424Z,32.70
2018-09-01T14:22:58.708Z,32.70
2018-09-01T14:25:28.050Z,32.70
2018-09-01T14:27:57.363Z,32.70
2018-09-01T14:30:26.598Z,32.70
2018-09-01T14:32:55.912Z,32.70
2018-09-01T14:35:25.304Z,32.70
2018-09-01T14:37:54.667Z,32.60
2018-09-01T14:40:23.963Z,32.60
2018-09-01T14:42:53.207Z,32.60
2018-09-01T14:45:22.484Z,32.60
2018-09-01T14:47:51.787Z,32.60
2018-09-01T14:50:21.132Z,32.50
2018-09-01T14:52:50.419Z,32.50
2018-09-01T14:55:19.680Z,32.50
2018-09-01T14:57:49.043Z,32.50
2018-09-01T15:00:18.262Z,32.50
2018-09-01T15:02:47.496Z,32.50
2018-09-01T15:05:16.786Z,32.40
2018-09-01T15:07:46.056Z,32.50
2018-09-01T15:10:15.385Z,32.40
2018-09-01T15:12:44.723Z,32.40
2018-09-01T15:15:14.107Z,32.40
2018-09-01T15:17:43.695Z,32.30
2018-09-01T15:20:13.089Z,32.40
2018-09-01T15:22:42.475Z,32.40
2018-09-01T15:25:11.840Z,32.30
2018-09-01T15:27:41.268Z,32.30
2018-09-01T15:30:10.619Z,32.30
2018-09-01T15:32:39.941Z,32.30
2018-09-01T15:35:09.190Z,32.30
2018-09-01T15:37:38.427Z,32.30
2018-09-01T15:40:07.722Z,32.30
2018-09-01T15:42:37.104Z,32.20
2018-09-01T15:45:06.443Z,32.20
2018-09-01T15:47:36.077Z,32.20
2018-09-01T15:50:05.489Z,32.20
2018-09-01T15:52:34.773Z,32.20
2018-09-01T15:55:04.264Z,32.20
2018-09-01T15:57:33.539Z,32.10
2018-09-01T16:00:02.780Z,32.10
2018-09-01T16:02:32.123Z,32.10
2018-09-01T16:05:01.442Z,32.10
2018-09-01T16:07:30.762Z,32.00
2018-09-01T16:10:00.023Z,32.00
2018-09-01T16:12:29.284Z,32.00
2018-09-01T16:14:58.600Z,32.00
2018-09-01T16:17:27.939Z,32.00
2018-09-01T16:19:57.285Z,32.00
2018-09-01T16:22:26.554Z,31.90
2018-09-01T16:24:55.799Z,31.90
2018-09-01T16:27:25.186Z,31.90
2018-09-01T16:29:54.495Z,31.90
2018-09-01T16:32:23.836Z,31.90
2018-09-01T16:34:53.088Z,31.90
2018-09-01T16:37:22.373Z,31.90
2018-09-01T16:39:51.695Z,31.90
2018-09-01T16:42:20.927Z,31.80
2018-09-01T16:44:50.203Z,31.80
2018-09-01T16:47:19.507Z,31.80
2018-09-01T16:49:48.836Z,31.80
2018-09-01T16:52:18.255Z,31.70
2018-09-01T16:54:47.576Z,31.70
2018-09-01T16:57:16.807Z,31.70
2018-09-01T16:59:47.116Z,31.70
2018-09-01T17:02:16.345Z,31.70
2018-09-01T17:04:45.588Z,31.60
2018-09-01T17:07:14.928Z,31.60
2018-09-01T17:09:44.320Z,31.60
2018-09-01T17:12:20.191Z,31.50
2018-09-01T17:14:49.464Z,31.50
2018-09-01T17:17:18.798Z,31.50
2018-09-01T17:19:48.048Z,31.50
2018-09-01T17:22:17.303Z,31.50
2018-09-01T17:24:46.582Z,31.50
2018-09-01T17:27:15.938Z,31.40
2018-09-01T17:29:45.242Z,31.40
2018-09-01T17:32:14.538Z,31.40
2018-09-01T17:34:43.837Z,31.40
2018-09-01T17:37:13.152Z,31.40
2018-09-01T17:39:42.364Z,31.30
2018-09-01T17:42:11.655Z,31.30
2018-09-01T17:44:41.015Z,31.30
2018-09-01T17:47:10.362Z,31.20
2018-09-01T17:49:39.663Z,31.20
2018-09-01T17:52:08.933Z,31.20
2018-09-01T17:54:38.415Z,31.20
2018-09-01T17:57:07.860Z,31.10
2018-09-01T17:59:37.230Z,31.10
2018-09-01T18:02:06.749Z,31.10
2018-09-01T18:04:36.167Z,31.00
2018-09-01T18:07:05.465Z,31.00
2018-09-01T18:09:34.869Z,31.00
2018-09-01T18:12:04.233Z,30.90
2018-09-01T18:14:33.485Z,30.90
2018-09-01T18:17:02.783Z,30.80
2018-09-01T18:19:32.012Z,30.80
2018-09-01T18:22:01.262Z,30.70
2018-09-01T18:24:30.706Z,30.70
2018-09-01T18:27:00.318Z,30.70
2018-09-01T18:29:30.889Z,30.70
2018-09-01T18:32:00.661Z,30.60
2018-09-01T18:34:30.271Z,30.60
2018-09-01T18:37:00.253Z,30.70
2018-09-01T18:39:29.655Z,30.70
2018-09-01T18:41:59.316Z,30.60
2018-09-01T18:44:29.128Z,30.50
2018-09-01T18:46:58.995Z,30.50
2018-09-01T18:49:28.472Z,30.50
2018-09-01T18:51:57.910Z,30.50
2018-09-01T18:54:27.235Z,30.40
2018-09-01T18:56:56.536Z,30.40
2018-09-01T18:59:25.779Z,30.40
2018-09-01T19:01:55.816Z,30.30
2018-09-01T19:04:32.536Z,30.30
2018-09-01T19:07:01.759Z,30.30
2018-09-01T19:09:31.330Z,30.30
2018-09-01T19:12:00.705Z,30.30
2018-09-01T19:14:29.970Z,30.30
2018-09-01T19:17:01.344Z,30.40
2018-09-01T19:19:31.393Z,30.30
2018-09-01T19:22:01.008Z,30.30
2018-09-01T19:24:30.371Z,30.30
2018-09-01T19:26:59.672Z,30.30
2018-09-01T19:29:28.941Z,30.30
2018-09-01T19:31:58.287Z,30.30
2018-09-01T19:34:27.750Z,30.30
2018-09-01T19:36:57.079Z,30.30
2018-09-01T19:39:26.310Z,30.30
2018-09-01T19:41:55.600Z,30.30
2018-09-01T19:44:32.245Z,30.20
2018-09-01T19:47:02.841Z,30.20
2018-09-01T19:49:32.145Z,30.20
2018-09-01T19:52:01.402Z,30.20
2018-09-01T19:54:31.010Z,30.20
2018-09-01T19:57:00.274Z,30.20
2018-09-01T19:59:29.533Z,30.20
2018-09-01T20:01:58.847Z,30.20
2018-09-01T20:04:28.199Z,30.20
2018-09-01T20:06:57.463Z,30.20
2018-09-01T20:09:26.809Z,30.20
2018-09-01T20:11:56.137Z,30.20
2018-09-01T20:14:25.537Z,30.20
2018-09-01T20:16:54.854Z,30.20
2018-09-01T20:19:24.155Z,30.20
2018-09-01T20:21:53.427Z,30.20
2018-09-01T20:24:22.746Z,30.20
2018-09-01T20:26:52.019Z,30.20
2018-09-01T20:29:21.272Z,30.10
2018-09-01T20:31:50.636Z,30.20
2018-09-01T20:34:19.823Z,30.10
2018-09-01T20:36:49.100Z,30.10
2018-09-01T20:39:18.341Z,30.10
2018-09-01T20:41:47.584Z,30.10
2018-09-01T20:44:16.900Z,30.10
2018-09-01T20:46:46.193Z,30.10
2018-09-01T20:49:15.500Z,30.00
2018-09-01T20:51:44.876Z,30.00
2018-09-01T20:54:14.152Z,30.00
2018-09-01T20:56:43.519Z,30.00
2018-09-01T20:59:12.812Z,30.00
2018-09-01T21:01:42.132Z,30.00
2018-09-01T21:04:11.403Z,30.00
2018-09-01T21:06:40.736Z,30.00
2018-09-01T21:09:10.695Z,30.00
2018-09-01T21:11:40.470Z,29.90
2018-09-01T21:14:10.012Z,29.90
2018-09-01T21:16:39.394Z,29.80
2018-09-01T21:19:08.772Z,29.80
2018-09-01T21:21:38.062Z,29.80
2018-09-01T21:24:07.674Z,29.90
2018-09-01T21:26:36.907Z,29.80
2018-09-01T21:29:06.442Z,29.80
2018-09-01T21:31:35.714Z,29.80
2018-09-01T21:34:05.168Z,29.80
2018-09-01T21:36:34.599Z,29.80
2018-09-01T21:39:04.075Z,29.80
2018-09-01T21:41:33.398Z,29.70
2018-09-01T21:44:02.845Z,29.70
2018-09-01T21:46:32.167Z,29.80
2018-09-01T21:49:01.504Z,29.70
2018-09-01T21:51:30.822Z,29.80
2018-09-01T21:54:00.163Z,29.80
2018-09-01T21:56:29.520Z,29.90
2018-09-01T21:58:58.819Z,29.80
2018-09-01T22:01:34.228Z,29.80
2018-09-01T22:04:03.562Z,29.70
2018-09-01T22:06:32.845Z,29.80
2018-09-01T22:09:02.248Z,29.80
2018-09-01T22:11:31.527Z,29.70
2018-09-01T22:14:00.850Z,29.70
2018-09-01T22:16:30.170Z,29.70
2018-09-01T22:18:59.454Z,29.70
2018-09-01T22:21:28.814Z,29.70
2018-09-01T22:23:58.118Z,29.70
2018-09-01T22:26:27.369Z,29.70
2018-09-01T22:28:56.770Z,29.70
2018-09-01T22:31:26.216Z,29.70
2018-09-01T22:33:55.508Z,29.70
2018-09-01T22:36:24.815Z,29.70
2018-09-01T22:38:54.304Z,29.70
2018-09-01T22:41:23.587Z,29.70
2018-09-01T22:43:53.066Z,29.70
2018-09-01T22:46:22.420Z,29.70
2018-09-01T22:48:51.667Z,29.70
2018-09-01T22:51:20.965Z,29.70
2018-09-01T22:53:50.187Z,29.60
2018-09-01T22:56:19.404Z,29.60
2018-09-01T22:58:48.718Z,29.60
2018-09-01T23:01:17.980Z,29.60
2018-09-01T23:03:47.251Z,29.60
2018-09-01T23:06:16.631Z,29.60
2018-09-01T23:08:45.876Z,29.50
2018-09-01T23:11:15.104Z,29.60
2018-09-01T23:13:44.446Z,29.60
2018-09-01T23:16:13.882Z,29.60
2018-09-01T23:18:43.146Z,29.60
2018-09-01T23:21:12.463Z,29.50
2018-09-01T23:23:41.772Z,29.50
2018-09-01T23:26:11.033Z,29.50
2018-09-01T23:28:40.414Z,29.50
2018-09-01T23:31:09.652Z,29.50
2018-09-01T23:33:38.940Z,29.50
2018-09-01T23:36:08.308Z,29.50
